Time;durP1;ratioP1;P1;durP2;ratioP2;P2;SDS_P1;SDS_P2;PMS_P1;PMS_P2;Temp;Humidity;BMP_temperature;BMP_pressure;BME280_temperature;BME280_humidity;BME280_pressure;Samples;Min_cycle;Max_cycle;Signal;HPM_P1;HPM_P2
2021/07/12 00:02:15;;;;;;;64.55;31.33;;;;;;;15.60;89.28;101647.72;5011883;28;20053;-69
2021/07/12 00:04:43;;;;;;;63.53;32.80;;;;;;;15.56;89.20;101648.78;5019335;28;20049;-68
2021/07/12 00:07:12;;;;;;;62.75;32.13;;;;;;;15.61;89.21;101644.09;5017642;28;20057;-69
2021/07/12 00:09:40;;;;;;;62.00;31.23;;;;;;;15.56;89.44;101650.59;5017267;28;20068;-68
2021/07/12 00:12:08;;;;;;;70.97;32.95;;;;;;;15.57;88.97;101647.84;5015512;28;20405;-69
2021/07/12 00:14:36;;;;;;;63.33;32.15;;;;;;;15.54;88.90;101642.56;5015180;28;20116;-68
2021/07/12 00:17:04;;;;;;;64.97;32.42;;;;;;;15.50;89.83;101638.28;5019134;28;20073;-68
2021/07/12 00:19:32;;;;;;;66.32;30.20;;;;;;;15.55;89.73;101640.78;5014161;28;20668;-68
2021/07/12 00:22:00;;;;;;;64.10;31.52;;;;;;;15.49;89.59;101623.97;5015646;28;20065;-68
2021/07/12 00:24:29;;;;;;;63.50;30.95;;;;;;;15.49;90.45;101628.44;5019010;28;20065;-69
2021/07/12 00:26:57;;;;;;;70.07;31.77;;;;;;;15.47;90.83;101625.81;5011351;28;20048;-68
2021/07/12 00:29:24;;;;;;;64.40;31.63;;;;;;;15.46;90.11;101620.47;5018563;28;20093;-75
2021/07/12 00:31:52;;;;;;;65.93;31.48;;;;;;;15.46;90.43;101625.88;5014598;28;20372;-76
2021/07/12 00:34:20;;;;;;;69.70;33.58;;;;;;;15.46;90.63;101628.56;5018384;28;20061;-76
2021/07/12 00:36:48;;;;;;;59.03;29.52;;;;;;;15.47;90.89;101633.00;5019723;28;20074;-69
2021/07/12 00:39:16;;;;;;;70.47;33.63;;;;;;;15.48;91.06;101632.09;5014973;28;20076;-69
2021/07/12 00:41:45;;;;;;;70.05;33.28;;;;;;;15.52;91.87;101631.00;5017850;28;20061;-69
2021/07/12 00:44:13;;;;;;;71.85;32.92;;;;;;;15.56;91.52;101624.59;5016575;28;20103;-76
2021/07/12 00:46:41;;;;;;;66.55;30.90;;;;;;;15.59;90.97;101613.69;5015151;28;20058;-76
2021/07/12 00:49:08;;;;;;;70.03;31.80;;;;;;;15.63;91.30;101609.94;5016686;28;20065;-76
2021/07/12 00:51:36;;;;;;;78.78;35.75;;;;;;;15.69;92.22;101612.34;5014951;28;20116;-76
2021/07/12 00:54:04;;;;;;;76.18;35.47;;;;;;;15.73;92.20;101613.09;5017629;28;20058;-75
2021/07/12 00:56:32;;;;;;;73.82;35.25;;;;;;;15.76;92.36;101612.16;5018581;28;20061;-76
2021/07/12 00:59:04;;;;;;;76.75;34.53;;;;;;;15.77;92.28;101597.78;5011845;28;20061;-76
2021/07/12 01:01:32;;;;;;;75.75;37.08;;;;;;;15.78;92.66;101600.41;5017717;28;20050;-76
2021/07/12 01:04:00;;;;;;;79.35;38.92;;;;;;;15.80;92.94;101592.22;5014648;28;20467;-76
2021/07/12 01:06:27;;;;;;;82.93;37.50;;;;;;;15.81;92.72;101589.47;5016087;28;20042;-76
2021/07/12 01:08:55;;;;;;;81.50;35.85;;;;;;;15.84;93.05;101588.50;5020531;28;20057;-76
2021/07/12 01:11:30;;;;;;;78.63;35.08;;;;;;;15.90;92.86;101593.59;5014436;28;20053;-69
2021/07/12 01:14:03;;;;;;;81.43;36.42;;;;;;;15.87;93.02;101586.53;5016832;28;20061;-69
2021/07/12 01:16:45;;;;;;;87.38;38.50;;;;;;;15.86;93.30;101590.16;5014230;28;20065;-69
2021/07/12 01:19:29;;;;;;;87.20;36.30;;;;;;;15.91;93.17;101584.59;5016186;28;20045;-76
2021/07/12 01:22:26;;;;;;;85.95;36.20;;;;;;;15.91;93.27;101581.91;5015184;28;20069;-76
2021/07/12 01:25:30;;;;;;;77.30;36.08;;;;;;;15.91;93.43;101592.66;5014694;28;20087;-77
2021/07/12 01:28:32;;;;;;;82.45;38.03;;;;;;;15.96;93.49;101589.78;4988757;28;20069;-76
2021/07/12 01:31:36;;;;;;;83.90;38.83;;;;;;;15.99;92.89;101587.84;5016535;28;20056;-70
2021/07/12 01:34:10;;;;;;;84.93;39.03;;;;;;;16.02;93.28;101586.81;5022051;28;20488;-69
2021/07/12 01:36:40;;;;;;;;;;;;;;;16.00;93.61;101576.13;5013767;28;20065;-69
2021/07/12 01:39:11;;;;;;;79.45;35.33;;;;;;;16.03;93.27;101584.06;5020076;28;19933;-76
2021/07/12 01:41:47;;;;;;;83.95;37.92;;;;;;;16.08;93.40;101583.00;5014674;28;20045;-76
2021/07/12 01:44:29;;;;;;;88.03;37.65;;;;;;;16.07;93.48;101582.09;5016538;28;20041;-76
2021/07/12 01:47:04;;;;;;;84.03;37.30;;;;;;;16.09;93.37;101579.34;5016979;28;20070;-76
2021/07/12 01:49:37;;;;;;;89.10;39.80;;;;;;;16.09;93.93;101580.25;5014040;28;20468;-76
2021/07/12 01:52:12;;;;;;;90.75;39.17;;;;;;;16.11;93.70;101569.41;5014516;28;20428;-69
2021/07/12 01:54:48;;;;;;;92.15;39.65;;;;;;;16.16;93.66;101567.41;5013834;28;20065;-68
2021/07/12 01:57:24;;;;;;;79.07;37.67;;;;;;;16.15;93.72;101563.81;5015738;28;20065;-69
2021/07/12 01:59:56;;;;;;;90.68;41.55;;;;;;;16.15;94.03;101561.13;5016552;28;20076;-69
2021/07/12 02:02:25;;;;;;;99.22;42.85;;;;;;;16.14;93.85;101570.16;5012618;28;20072;-69
2021/07/12 02:04:57;;;;;;;98.82;42.03;;;;;;;16.15;93.58;101573.72;5017139;28;20484;-69
2021/07/12 02:07:26;;;;;;;91.63;39.17;;;;;;;16.18;93.53;101566.38;5014493;28;20512;-69
2021/07/12 02:09:55;;;;;;;88.90;36.40;;;;;;;16.17;92.88;101564.59;5020197;28;20096;-69
2021/07/12 02:12:24;;;;;;;84.32;39.00;;;;;;;16.16;93.58;101568.25;5020570;28;20065;-69
2021/07/12 02:14:52;;;;;;;87.47;41.33;;;;;;;16.16;93.15;101567.41;5018023;28;20061;-69
2021/07/12 02:17:21;;;;;;;79.25;36.58;;;;;;;16.18;93.28;101555.59;5014955;28;20562;-69
2021/07/12 02:19:51;;;;;;;84.97;38.22;;;;;;;16.15;93.08;101558.44;5014074;28;20400;-69
2021/07/12 02:22:22;;;;;;;82.53;38.20;;;;;;;16.16;93.31;101556.63;5014538;28;20111;-69
2021/07/12 02:24:51;;;;;;;95.57;42.13;;;;;;;16.16;93.40;101556.63;5019460;28;20187;-69
2021/07/12 02:27:22;;;;;;;98.45;42.67;;;;;;;16.14;93.43;101550.41;5015481;28;20065;-69
2021/07/12 02:29:51;;;;;;;93.22;41.28;;;;;;;16.16;93.34;101546.72;5019271;28;20061;-69
2021/07/12 02:32:20;;;;;;;85.53;40.75;;;;;;;16.11;93.57;101547.88;5013205;28;20321;-69
2021/07/12 02:34:49;;;;;;;100.13;41.75;;;;;;;16.12;93.55;101542.41;5015035;28;20053;-69
2021/07/12 02:37:18;;;;;;;81.38;35.75;;;;;;;16.15;93.52;101536.03;5016220;28;20066;-69
2021/07/12 02:39:50;;;;;;;87.75;41.70;;;;;;;16.15;93.86;101528.81;5013169;28;21082;-69
2021/07/12 02:42:18;;;;;;;89.55;38.60;;;;;;;16.16;93.85;101533.25;5015172;28;20115;-69
2021/07/12 02:44:49;;;;;;;87.57;39.13;;;;;;;16.18;93.60;101530.50;5015935;28;20066;-69
2021/07/12 02:47:17;;;;;;;80.78;35.85;;;;;;;16.19;93.75;101514.28;5013451;28;20472;-68
2021/07/12 02:49:45;;;;;;;82.57;38.35;;;;;;;16.24;94.33;101527.53;5015638;28;20108;-69
2021/07/12 02:52:21;;;;;;;86.43;38.08;;;;;;;16.21;94.01;101517.78;5014062;28;20061;-69
2021/07/12 02:54:56;;;;;;;96.00;40.25;;;;;;;16.20;94.63;101509.78;5021174;28;20061;-69
2021/07/12 02:57:24;;;;;;;88.15;39.33;;;;;;;16.21;94.41;101517.78;5019725;28;20066;-69
2021/07/12 02:59:52;;;;;;;91.50;40.80;;;;;;;16.19;94.49;101514.28;5018990;28;20042;-69
2021/07/12 03:02:19;;;;;;;91.30;40.90;;;;;;;16.20;94.51;101512.47;5019887;28;20049;-69
2021/07/12 03:04:47;;;;;;;93.78;43.45;;;;;;;16.19;94.51;101502.63;5015736;28;20795;-69
2021/07/12 03:07:31;;;;;;;81.15;37.88;;;;;;;16.19;94.73;101502.63;5018817;28;20538;-69
2021/07/12 03:10:07;;;;;;;97.20;40.28;;;;;;;16.21;94.72;101508.84;5017202;28;20577;-69
2021/07/12 03:12:42;;;;;;;92.22;40.97;;;;;;;16.22;94.66;101497.97;5018487;28;20057;-69
2021/07/12 03:15:13;;;;;;;89.60;38.85;;;;;;;16.22;94.59;101503.34;5016003;28;20065;-69
2021/07/12 03:17:45;;;;;;;89.13;38.25;;;;;;;16.24;94.94;101490.72;5017695;28;20068;-75
2021/07/12 03:20:15;;;;;;;94.20;40.50;;;;;;;16.21;94.80;101487.31;5019178;28;20392;-75
2021/07/12 03:22:49;;;;;;;93.18;41.72;;;;;;;16.20;94.87;101491.78;5020688;28;20112;-69
2021/07/12 03:25:21;;;;;;;;;;;;;;;16.20;94.95;101486.41;5016962;28;20343;-69
2021/07/12 03:27:52;;;;;;;91.03;42.30;;;;;;;16.17;95.22;101483.84;5021505;28;19929;-69
2021/07/12 03:30:20;;;;;;;94.95;40.20;;;;;;;16.14;95.39;101478.63;5018494;28;20057;-75
2021/07/12 03:32:49;;;;;;;77.97;36.47;;;;;;;16.15;95.40;101477.66;5020468;28;20449;-74
2021/07/12 03:35:18;;;;;;;93.43;41.72;;;;;;;16.12;95.84;101487.69;5014582;28;20885;-70
2021/07/12 03:37:46;;;;;;;84.88;37.33;;;;;;;16.16;95.58;101486.63;5018036;28;20089;-68
2021/07/12 03:40:15;;;;;;;92.82;41.90;;;;;;;16.14;95.71;101481.31;5016099;28;20476;-68
2021/07/12 03:42:46;;;;;;;78.88;37.33;;;;;;;16.11;95.58;101485.97;5014996;28;20065;-68
2021/07/12 03:45:15;;;;;;;78.80;36.80;;;;;;;16.15;95.58;101492.94;5019626;28;20108;-70
2021/07/12 03:47:45;;;;;;;88.40;37.05;;;;;;;16.17;95.61;101477.59;5018380;28;20094;-70
2021/07/12 03:50:15;;;;;;;86.32;40.53;;;;;;;16.21;95.91;101487.31;5022521;28;20092;-70
2021/07/12 03:52:44;;;;;;;92.18;40.70;;;;;;;16.22;96.23;101484.50;5018802;28;20216;-70
2021/07/12 03:55:15;;;;;;;88.70;39.40;;;;;;;16.26;95.57;101487.97;5015775;28;20152;-70
2021/07/12 03:57:43;;;;;;;87.47;39.83;;;;;;;16.28;95.81;101477.09;5018505;28;20077;-70
2021/07/12 04:00:15;;;;;;;80.00;37.45;;;;;;;16.32;95.41;101478.72;5013198;28;20139;-69
2021/07/12 04:02:44;;;;;;;92.78;40.55;;;;;;;16.32;95.69;101486.81;5017396;28;20468;-70
2021/07/12 04:05:13;;;;;;;94.03;40.17;;;;;;;16.32;95.38;101487.66;5018064;28;20066;-69
2021/07/12 04:07:41;;;;;;;86.82;38.15;;;;;;;16.33;95.49;101484.03;5014276;28;20065;-70
2021/07/12 04:10:11;;;;;;;77.28;36.47;;;;;;;16.37;95.22;101480.25;5020253;28;20061;-70
2021/07/12 04:12:39;;;;;;;88.70;38.58;;;;;;;16.43;95.02;101479.09;5018554;28;20076;-76
2021/07/12 04:15:09;;;;;;;83.28;37.20;;;;;;;16.41;94.76;101478.28;5018250;28;20046;-77
2021/07/12 04:17:38;;;;;;;84.00;38.78;;;;;;;16.44;94.85;101478.16;5019705;28;20072;-76
2021/07/12 04:20:07;;;;;;;84.72;38.85;;;;;;;16.43;94.95;101469.19;5016219;28;20057;-76
2021/07/12 04:22:36;;;;;;;75.03;35.05;;;;;;;16.44;95.05;101462.84;5020105;28;20072;-75
2021/07/12 04:25:04;;;;;;;89.32;37.60;;;;;;;16.48;94.96;101468.09;5015756;28;20478;-76
2021/07/12 04:27:32;;;;;;;82.63;37.92;;;;;;;16.48;94.83;101465.41;5017048;28;20514;-75
2021/07/12 04:30:00;;;;;;;84.57;40.38;;;;;;;16.52;94.37;101467.03;5022464;28;20153;-70
2021/07/12 04:32:28;;;;;;;84.75;39.13;;;;;;;16.49;94.58;101468.03;5011651;28;20096;-70
2021/07/12 04:34:57;;;;;;;76.70;36.10;;;;;;;16.47;94.97;101453.75;5017741;28;20073;-70
2021/07/12 04:37:25;;;;;;;74.43;36.92;;;;;;;16.51;94.59;101457.19;5014448;28;20142;-70
2021/07/12 04:39:52;;;;;;;79.57;37.92;;;;;;;16.51;94.52;101451.78;5017891;28;20064;-69
2021/07/12 04:42:20;;;;;;;82.53;38.90;;;;;;;16.51;94.73;101457.19;5017883;28;20376;-69
2021/07/12 04:44:48;;;;;;;76.15;38.50;;;;;;;16.50;94.79;101447.34;5016539;28;20095;-70
2021/07/12 04:47:16;;;;;;;77.40;37.35;;;;;;;16.53;94.88;101444.50;5018059;28;20553;-70
2021/07/12 04:49:44;;;;;;;74.00;36.55;;;;;;;16.57;94.69;101448.81;5010945;28;20057;-70
2021/07/12 04:52:13;;;;;;;78.00;36.88;;;;;;;16.57;94.47;101443.44;5015722;28;20457;-70
2021/07/12 04:54:42;;;;;;;73.45;36.10;;;;;;;16.53;94.43;101440.03;5018818;28;20108;-70
2021/07/12 04:57:10;;;;;;;75.80;34.03;;;;;;;16.62;94.07;101441.41;5013091;28;20042;-70
2021/07/12 04:59:39;;;;;;;76.35;37.92;;;;;;;16.66;93.90;101442.97;5015817;28;20101;-69
2021/07/12 05:02:07;;;;;;;73.95;34.60;;;;;;;16.71;93.68;101445.47;5019718;28;20068;-69
2021/07/12 05:04:36;;;;;;;69.38;35.58;;;;;;;16.77;93.82;101428.97;5014373;28;20089;-69
2021/07/12 05:07:04;;;;;;;72.07;35.20;;;;;;;16.74;93.56;101429.16;5016400;28;20053;-69
2021/07/12 05:09:34;;;;;;;80.38;35.38;;;;;;;16.82;93.36;101429.63;5016411;28;20075;-69
2021/07/12 05:12:01;;;;;;;76.25;36.17;;;;;;;16.90;93.64;101432.88;5016406;28;20064;-69
2021/07/12 05:14:30;;;;;;;73.38;34.10;;;;;;;16.97;93.32;101428.03;5015381;28;20057;-69
2021/07/12 05:16:59;;;;;;;69.47;33.53;;;;;;;17.07;92.71;101428.47;5015069;28;20069;-69
2021/07/12 05:19:27;;;;;;;70.55;35.05;;;;;;;17.19;92.46;101422.44;5016980;28;20057;-69
2021/07/12 05:21:54;;;;;;;77.40;38.92;;;;;;;17.24;91.97;101406.91;5014145;28;20392;-69
2021/07/12 05:24:22;;;;;;;70.63;35.60;;;;;;;17.44;91.18;101419.38;5015790;28;20461;-69
2021/07/12 05:26:51;;;;;;;75.03;35.58;;;;;;;17.61;90.54;101421.19;5016255;28;20061;-69
2021/07/12 05:29:19;;;;;;;76.53;37.70;;;;;;;17.61;90.03;101415.81;5013964;28;20549;-69
2021/07/12 05:31:48;;;;;;;80.95;37.63;;;;;;;17.54;90.61;101419.78;5017469;28;20356;-69
2021/07/12 05:34:16;;;;;;;69.43;34.75;;;;;;;17.85;89.74;101405.53;5014882;28;20335;-69
2021/07/12 05:36:45;;;;;;;71.65;36.80;;;;;;;18.05;88.58;101412.59;5014143;28;20061;-69
2021/07/12 05:39:13;;;;;;;70.95;36.72;;;;;;;18.25;87.69;101410.59;5014145;28;20086;-69
2021/07/12 05:41:41;;;;;;;72.82;36.17;;;;;;;18.63;86.40;101411.16;5015073;28;20074;-69
2021/07/12 05:44:10;;;;;;;71.80;35.92;;;;;;;18.80;84.16;101412.03;5017203;28;20111;-69
2021/07/12 05:46:39;;;;;;;72.88;37.13;;;;;;;19.01;83.28;101402.69;5015976;28;20397;-70
2021/07/12 05:49:07;;;;;;;64.65;34.95;;;;;;;19.00;83.31;101397.38;5013296;28;20061;-70
2021/07/12 05:51:34;;;;;;;66.05;34.88;;;;;;;19.06;82.13;101402.44;5014471;28;20120;-76
2021/07/12 05:54:02;;;;;;;66.32;34.63;;;;;;;19.12;81.85;101390.38;5016469;28;20049;-75
2021/07/12 05:56:30;;;;;;;61.38;31.42;;;;;;;19.30;81.73;101386.56;5015664;28;20073;-75
2021/07/12 05:58:58;;;;;;;57.92;31.70;;;;;;;19.28;80.87;101391.22;5018506;28;20111;-75
2021/07/12 06:01:47;;;;;;;60.80;32.20;;;;;;;19.36;79.93;101388.91;5012872;28;20065;-74
2021/07/12 06:04:15;;;;;;;58.97;31.80;;;;;;;19.23;80.64;101394.19;5015034;28;20058;-75
2021/07/12 06:06:43;;;;;;;52.45;30.60;;;;;;;19.23;81.22;101390.63;5011468;28;20065;-75
2021/07/12 06:09:11;;;;;;;54.13;31.38;;;;;;;19.28;80.91;101387.66;5014045;28;20333;-76
2021/07/12 06:11:39;;;;;;;50.05;29.17;;;;;;;19.42;80.53;101383.13;5013152;28;20061;-74
2021/07/12 06:14:07;;;;;;;54.83;29.77;;;;;;;19.46;79.97;101374.81;5017029;28;20455;-74
2021/07/12 06:16:35;;;;;;;48.33;30.35;;;;;;;19.75;78.99;101384.78;5018246;28;20433;-73
2021/07/12 06:19:05;;;;;;;53.53;30.15;;;;;;;19.76;78.60;101381.06;5012522;28;20390;-74
2021/07/12 06:21:32;;;;;;;52.05;30.45;;;;;;;19.75;78.34;101383.88;5014834;28;20111;-74
2021/07/12 06:24:00;;;;;;;55.78;30.35;;;;;;;19.65;78.00;101382.66;5019674;28;20065;-74
2021/07/12 06:26:29;;;;;;;56.58;29.60;;;;;;;19.57;78.85;101394.00;5013368;28;20331;-73
2021/07/12 06:28:57;;;;;;;57.08;30.85;;;;;;;19.60;78.87;101397.38;5021713;28;20370;-73
2021/07/12 06:31:24;;;;;;;58.65;31.88;;;;;;;19.65;78.19;101385.38;5020687;28;20065;-73
2021/07/12 06:33:53;;;;;;;46.92;28.52;;;;;;;19.82;78.50;101396.09;5020394;28;20080;-73
2021/07/12 06:36:22;;;;;;;50.65;29.58;;;;;;;19.80;78.63;101400.72;5021912;28;20087;-74
2021/07/12 06:38:50;;;;;;;48.97;28.95;;;;;;;19.82;77.34;101398.81;5016668;28;20065;-74
2021/07/12 06:41:17;;;;;;;49.55;29.05;;;;;;;19.92;76.58;101404.50;5020896;28;20403;-74
2021/07/12 06:43:45;;;;;;;50.65;29.33;;;;;;;20.01;76.44;101406.63;5019017;28;20336;-74
2021/07/12 06:46:13;;;;;;;52.63;29.13;;;;;;;19.87;76.72;101401.19;5019989;28;20115;-74
2021/07/12 06:48:41;;;;;;;53.17;31.17;;;;;;;19.86;76.73;101399.47;5021418;28;20069;-73
2021/07/12 06:51:09;;;;;;;52.53;30.33;;;;;;;20.27;76.37;101390.56;5020829;28;20104;-74
2021/07/12 06:53:38;;;;;;;57.42;33.05;;;;;;;20.53;75.06;101388.88;5019237;28;20065;-74
2021/07/12 06:56:06;;;;;;;46.05;27.55;;;;;;;20.82;74.28;101387.00;5017295;28;20050;-74
2021/07/12 06:58:34;;;;;;;47.58;28.08;;;;;;;20.80;74.74;101393.47;5017753;28;20488;-74
2021/07/12 07:01:02;;;;;;;49.92;29.75;;;;;;;20.65;74.06;101389.94;5023141;28;20456;-74
2021/07/12 07:03:30;;;;;;;45.45;27.90;;;;;;;20.60;74.88;101383.91;5017495;28;21584;-75
2021/07/12 07:05:58;;;;;;;43.92;28.45;;;;;;;20.53;74.74;101378.03;5017497;28;20108;-76
2021/07/12 07:08:26;;;;;;;52.47;30.95;;;;;;;20.26;74.41;101376.16;5015971;28;20141;-76
2021/07/12 07:10:55;;;;;;;50.00;29.88;;;;;;;20.32;74.78;101373.03;5013630;28;20412;-77
2021/07/12 07:13:23;;;;;;;51.30;29.95;;;;;;;20.36;74.51;101371.00;5018305;28;20540;-76
2021/07/12 07:15:51;;;;;;;45.45;29.77;;;;;;;20.18;75.57;101367.66;5013575;28;20061;-75
2021/07/12 07:18:19;;;;;;;53.58;30.77;;;;;;;20.31;75.18;101370.41;5014866;28;20454;-76
2021/07/12 07:20:47;;;;;;;47.88;29.48;;;;;;;20.31;75.35;101365.00;5018627;28;20356;-76
2021/07/12 07:23:14;;;;;;;40.20;26.08;;;;;;;20.59;75.15;101368.63;5011997;28;20092;-76
2021/07/12 07:25:42;;;;;;;43.10;27.40;;;;;;;20.59;74.26;101372.22;5012496;28;20073;-75
2021/07/12 07:28:11;;;;;;;46.17;27.95;;;;;;;20.65;74.11;101370.94;5013569;28;20067;-75
2021/07/12 07:30:40;;;;;;;47.53;30.63;;;;;;;20.71;73.78;101376.84;5014234;28;20518;-75
2021/07/12 07:33:08;;;;;;;40.80;26.80;;;;;;;20.75;72.42;101366.66;5015857;28;20698;-74
2021/07/12 07:35:36;;;;;;;45.83;29.30;;;;;;;20.68;72.50;101362.63;5012925;28;20202;-75
2021/07/12 07:38:04;;;;;;;40.05;25.98;;;;;;;21.05;71.98;101358.31;5019256;28;20069;-76
2021/07/12 07:40:32;;;;;;;40.63;26.80;;;;;;;21.06;71.14;101351.03;5014166;28;20073;-75
2021/07/12 07:42:59;;;;;;;43.75;26.33;;;;;;;20.88;72.21;101345.88;5013524;28;20165;-75
2021/07/12 07:45:28;;;;;;;43.92;27.52;;;;;;;21.23;71.07;101355.28;5018044;28;20140;-75
2021/07/12 07:47:56;;;;;;;47.00;28.27;;;;;;;21.25;70.81;101356.09;5010576;28;20287;-74
2021/07/12 07:50:25;;;;;;;44.45;29.38;;;;;;;21.47;70.66;101362.75;5014255;28;20152;-75
2021/07/12 07:52:52;;;;;;;42.05;26.40;;;;;;;21.89;69.10;101350.69;5015547;28;20320;-75
2021/07/12 07:55:21;;;;;;;42.60;27.35;;;;;;;22.04;67.71;101347.88;5012328;28;20385;-70
2021/07/12 07:57:50;;;;;;;44.88;28.20;;;;;;;22.25;68.00;101350.84;5017482;28;20062;-70
2021/07/12 08:00:20;;;;;;;45.03;27.80;;;;;;;22.42;67.70;101339.63;5011336;28;20062;-75
2021/07/12 08:02:49;;;;;;;42.58;27.92;;;;;;;22.32;67.39;101335.84;5015354;28;20069;-75
2021/07/12 08:05:18;;;;;;;39.28;25.63;;;;;;;22.79;65.83;101327.84;5015473;28;20377;-75
2021/07/12 08:07:46;;;;;;;38.05;25.33;;;;;;;23.38;65.00;101329.66;5010878;28;20093;-75
2021/07/12 08:10:15;;;;;;;42.10;27.40;;;;;;;23.04;65.25;101329.56;5016340;28;20113;-75
2021/07/12 08:12:45;;;;;;;39.15;27.13;;;;;;;23.31;64.25;101327.44;5011384;28;20655;-76
2021/07/12 08:15:14;;;;;;;37.88;24.13;;;;;;;23.42;63.78;101323.00;5016285;28;20055;-75
2021/07/12 08:17:44;;;;;;;37.03;25.67;;;;;;;23.41;63.67;101327.59;5017805;28;20065;-76
2021/07/12 08:20:15;;;;;;;38.45;23.98;;;;;;;23.66;63.22;101322.91;5010901;28;20070;-76
2021/07/12 08:22:50;;;;;;;32.83;22.00;;;;;;;23.43;62.56;101316.59;5014728;28;20065;-76
2021/07/12 08:25:22;;;;;;;32.97;22.55;;;;;;;23.40;63.49;101323.13;5012666;28;20084;-75
2021/07/12 08:27:51;;;;;;;29.50;21.15;;;;;;;23.27;62.07;101316.91;5016395;28;20151;-75
2021/07/12 08:30:20;;;;;;;34.35;22.35;;;;;;;23.40;61.23;101314.97;5016405;28;20085;-75
2021/07/12 08:32:47;;;;;;;32.28;22.67;;;;;;;23.75;61.01;101313.13;5010323;28;20321;-75
2021/07/12 08:35:17;;;;;;;30.13;21.48;;;;;;;23.97;59.87;101312.28;5017569;28;20080;-76
2021/07/12 08:37:49;;;;;;;28.40;18.55;;;;;;;24.34;58.88;101315.59;5010323;28;20066;-75
2021/07/12 08:40:20;;;;;;;32.85;21.65;;;;;;;24.39;58.66;101313.34;5016237;28;20058;-75
2021/07/12 08:42:50;;;;;;;31.52;20.58;;;;;;;24.86;57.75;101306.75;5014726;28;20087;-75
2021/07/12 08:45:19;;;;;;;33.17;21.35;;;;;;;25.28;56.27;101307.69;5008464;28;20097;-76
2021/07/12 08:47:47;;;;;;;31.70;21.70;;;;;;;24.70;57.07;101315.41;5012797;28;20062;-75
2021/07/12 08:50:15;;;;;;;28.13;19.13;;;;;;;24.73;57.67;101318.72;5013899;28;20065;-75
2021/07/12 08:52:45;;;;;;;30.77;20.17;;;;;;;25.31;56.00;101312.88;5010601;28;20057;-75
2021/07/12 08:55:13;;;;;;;30.40;20.30;;;;;;;25.48;55.18;101305.09;5013513;28;20061;-75
2021/07/12 08:57:54;;;;;;;26.20;18.30;;;;;;;25.58;54.80;101305.16;5010170;28;20131;-75
2021/07/12 09:00:37;;;;;;;24.75;17.27;;;;;;;25.43;54.24;101290.97;5017817;28;21609;-75
2021/07/12 09:03:18;;;;;;;24.30;16.75;;;;;;;25.87;52.95;101287.00;5013989;28;20294;-75
2021/07/12 09:05:53;;;;;;;28.67;18.20;;;;;;;25.92;53.91;101292.06;5014802;28;20049;-75
2021/07/12 09:08:46;;;;;;;22.33;13.35;;;;;;;26.35;51.15;101299.13;5009399;28;20066;-75
2021/07/12 09:11:20;;;;;;;19.92;14.32;;;;;;;26.14;50.85;101301.94;5011884;28;20148;-76
2021/07/12 09:13:53;;;;;;;18.55;12.65;;;;;;;26.87;49.94;101285.22;5013388;28;20127;-75
2021/07/12 09:16:46;;;;;;;20.67;13.70;;;;;;;27.02;48.67;101288.34;5009225;28;20077;-75
2021/07/12 09:19:21;;;;;;;17.45;12.45;;;;;;;26.69;49.47;101293.28;5018480;28;20879;-75
2021/07/12 09:21:53;;;;;;;23.50;15.93;;;;;;;25.99;51.73;101290.53;5011371;28;20065;-75
2021/07/12 09:24:29;;;;;;;20.45;13.52;;;;;;;26.74;50.09;101280.03;5013790;28;20156;-75
2021/07/12 09:27:00;;;;;;;15.48;10.95;;;;;;;26.56;49.59;101285.34;5013416;28;20065;-74
2021/07/12 09:29:30;;;;;;;15.15;11.13;;;;;;;26.21;49.57;101289.44;5012341;28;20622;-76
2021/07/12 09:31:59;;;;;;;17.60;11.30;;;;;;;26.45;49.99;101278.09;5017672;28;20137;-77
2021/07/12 09:34:27;;;;;;;17.00;12.13;;;;;;;26.16;50.17;101271.75;5009744;28;20068;-75
2021/07/12 09:36:55;;;;;;;14.85;10.90;;;;;;;26.20;50.52;101274.03;5014085;28;20073;-74
2021/07/12 09:39:32;;;;;;;15.80;11.77;;;;;;;26.02;50.18;101279.31;5012248;28;20061;-74
2021/07/12 09:42:02;;;;;;;17.98;12.38;;;;;;;25.70;51.11;101279.47;5009268;28;20127;-76
2021/07/12 09:44:30;;;;;;;19.38;10.77;;;;;;;26.27;50.32;101274.34;5015931;28;20123;-74
2021/07/12 09:47:04;;;;;;;15.13;9.75;;;;;;;26.47;49.34;101272.50;5008760;28;20089;-75
2021/07/12 09:49:32;;;;;;;15.68;10.05;;;;;;;26.35;49.06;101273.63;5011699;28;20073;-74
2021/07/12 09:52:02;;;;;;;15.05;9.93;;;;;;;26.28;49.17;101279.66;5010473;28;20063;-74
2021/07/12 09:54:33;;;;;;;16.00;10.38;;;;;;;26.08;49.72;101277.88;5009114;28;20102;-74
2021/07/12 09:57:08;;;;;;;13.80;9.30;;;;;;;26.28;49.86;101268.72;5012680;28;20058;-74
2021/07/12 09:59:37;;;;;;;14.90;9.50;;;;;;;26.04;50.46;101263.63;5006218;28;20806;-75
2021/07/12 10:02:05;;;;;;;12.95;8.60;;;;;;;26.22;49.30;101265.69;5009729;28;20057;-75
2021/07/12 10:04:33;;;;;;;14.65;8.93;;;;;;;26.07;49.57;101259.78;5012979;28;20380;-77
2021/07/12 10:07:01;;;;;;;13.43;9.00;;;;;;;26.08;48.99;101259.63;5008158;28;20069;-75
2021/07/12 10:09:32;;;;;;;14.70;9.85;;;;;;;25.71;50.16;101251.13;5015981;28;20455;-74
2021/07/12 10:12:00;;;;;;;13.02;9.10;;;;;;;25.75;50.60;101252.59;5013442;28;20092;-74
2021/07/12 10:14:27;;;;;;;13.65;9.70;;;;;;;25.75;50.38;101243.53;5016354;28;21115;-75
2021/07/12 10:16:55;;;;;;;13.20;8.63;;;;;;;25.60;50.65;101246.63;5012539;28;20081;-74
2021/07/12 10:19:23;;;;;;;18.13;10.40;;;;;;;25.60;50.41;101248.50;5012021;28;20097;-70
2021/07/12 10:21:52;;;;;;;15.55;10.02;;;;;;;25.40;51.49;101251.13;5015270;28;20324;-72
2021/07/12 10:24:27;;;;;;;14.45;8.70;;;;;;;25.23;51.29;101238.06;5012328;28;20064;-71
2021/07/12 10:27:01;;;;;;;13.18;8.80;;;;;;;25.41;51.05;101241.09;5011570;28;20093;-69
2021/07/12 10:29:35;;;;;;;12.23;7.53;;;;;;;25.41;51.57;101238.34;5016747;28;20069;-69
2021/07/12 10:32:15;;;;;;;12.52;8.20;;;;;;;25.57;50.38;101244.16;5009520;28;20061;-70
2021/07/12 10:34:47;;;;;;;11.93;6.95;;;;;;;25.19;50.87;101251.13;5015709;28;20062;-69
2021/07/12 10:37:27;;;;;;;11.55;7.68;;;;;;;25.30;51.00;101239.28;5009634;28;20388;-69
2021/07/12 10:40:11;;;;;;;11.40;7.28;;;;;;;25.32;50.05;101234.56;5010124;28;20065;-69
2021/07/12 10:42:57;;;;;;;13.43;8.30;;;;;;;25.28;50.02;101242.16;5010051;28;20061;-69
2021/07/12 10:45:36;;;;;;;12.15;7.15;;;;;;;25.41;49.95;101243.81;5004791;28;20101;-69
2021/07/12 10:48:07;;;;;;;9.25;6.50;;;;;;;25.40;50.87;101242.06;5011972;28;20054;-69
2021/07/12 10:50:43;;;;;;;11.07;6.80;;;;;;;25.70;49.92;101246.69;5003499;28;20066;-70
2021/07/12 10:53:40;;;;;;;12.35;7.55;;;;;;;25.90;49.63;101251.19;5010341;28;20069;-69
2021/07/12 10:56:11;;;;;;;10.48;6.97;;;;;;;26.11;49.55;101255.75;5007794;28;20088;-69
2021/07/12 10:58:45;;;;;;;11.60;7.20;;;;;;;25.84;48.79;101250.88;5008282;28;20141;-69
2021/07/12 11:01:18;;;;;;;10.13;7.28;;;;;;;25.99;48.91;101249.53;5009789;28;20309;-69
2021/07/12 11:03:49;;;;;;;10.63;7.18;;;;;;;25.90;49.28;101247.59;5007013;28;20061;-69
2021/07/12 11:06:18;;;;;;;10.10;6.88;;;;;;;25.92;48.28;101240.13;5011806;28;20372;-74
2021/07/12 11:08:48;;;;;;;13.63;8.43;;;;;;;25.70;48.54;101244.78;5006920;28;20116;-75
2021/07/12 11:11:38;;;;;;;10.73;7.22;;;;;;;25.78;49.08;101235.03;5008744;28;20069;-75
2021/07/12 11:14:08;;;;;;;11.38;7.50;;;;;;;26.05;49.33;101240.78;5007595;28;20076;-74
2021/07/12 11:16:38;;;;;;;12.60;7.65;;;;;;;25.63;48.86;101245.50;5012350;28;20115;-74
2021/07/12 11:19:20;;;;;;;11.52;7.45;;;;;;;25.65;48.93;101244.34;5012969;28;20073;-75
2021/07/12 11:21:48;;;;;;;13.80;6.70;;;;;;;25.45;48.46;101237.06;5013450;28;20069;-70
2021/07/12 11:24:20;;;;;;;9.55;6.13;;;;;;;25.69;49.11;101239.47;5015756;28;20097;-71
2021/07/12 11:26:53;;;;;;;9.07;5.75;;;;;;;25.85;47.64;101245.28;5011881;28;20068;-71
2021/07/12 11:29:41;;;;;;;11.77;6.80;;;;;;;25.86;47.74;101232.47;5011560;28;21328;-71